Strona główna
METAR-TAF:

METAR-TAF

Lotnisko :

Port lotniczy Zagrzeb im. Franja Tuđmana

Zagrzeb, Chorwacja

Szerokość geograficzna: 45-44N, Długość geograficzna: 016-04E, wysokość: 106 m

Aktualna obserwacja pogody

Raport powstał 27 minut temu, godzina 13:00 UTC
Wiatr 10 kt od wschodnio-północny wschód, zmienny między północ i wschodnio-południowy wschód
Temperatura 11°C
Wilgotność 37%
Ciśnienie 1031 hPa
Widzialność 10 km lub więcej
Brak chmur poniżej 1500 m i brak chmur cumulonimbus

METAR: LDZA 201300Z 06010KT 010V110 CAVOK 11/M03 Q1031 NOSIG

czas: 14:27 (13:27 UTC)

Prognoza

Raport powstał 2 godziny i 2 minut temu, godzina 11:25 UTC
Prognoza ważna od 20 godzina 12 UTC do 21 godzina 12 UTC
Wiatr 13 kt od północny wschód
Widzialność 10 km lub więcej
Brak chmur poniżej 1500 m i brak chmur cumulonimbus
Stopniowe zmiany
od 20 godzina 20 UTC do 20 godzina 22 UTC
Wiatr 6 kt od północny wschód

TAF: LDZA 201125Z 2012/2112 05013KT CAVOK TX12/2013Z TN00/2105Z BECMG 2020/2022 05006KT

Obserwacja i prognoza pogody dla ponad 4000 lotnisk (raport METAR i TAF).

Dostępne stacje oznaczono żółtymi i czerwonymi punktami na mapie.

Najedź kursorem aby zobaczyć nazwę stacji.

Kliknij aby zobaczyć obserwacje i prognozy pogody.

Aby zmienić mapę: kliknij na zielony przycisk z czarnym krzyżykiem, aby powiększyć; na zielony przycisk z myślnikiem, aby pomniejszyć; na zielone strzałki, aby przejść do map sąsiednich.


METAR-TAF: